Bavaria Weather Data




      Date/Time    Temp      RH    Wind    Wind    Wind Snow 24hr Snow Depth
                  deg F       %     MPH     Max     Dir    inches     inches
                                                                            
----------------------------------------------------------------------------
 04/20/14 00:00    36.5      31      18      29     255       0.3       98.3
 04/20/14 01:00    36.6      28      18      31     263       0.3       98.3
 04/20/14 02:00    37.1      29      19      33     252       0.3       98.2
 04/20/14 03:00    36.8      31      19      32     251       0.3       98.1
 04/20/14 04:00    36.2      33      18      31     263       0.3       98.0
 04/20/14 05:00    34.2      48      17      28     276       0.3       97.8
 04/20/14 06:00    28.6      63      15      25     314       0.3       97.8
 04/20/14 07:00    25.8      79      18      32     317       0.3       97.8
 04/20/14 08:00    24.6      82      18      28     292       0.3       97.8
 04/20/14 09:00    25.0      70      16      26     308       0.3       97.7
 04/20/14 10:00    26.2      60      12      23     291       0.3       97.7
 04/20/14 11:00    28.8      28       8      20     297       0.3       97.6
 04/20/14 12:00    29.4      26      12      23     290       0.3       97.8
 04/20/14 13:00    31.6      28      10      21     259       0.2       98.5
 04/20/14 14:00    35.0      23       7      15     234       0.3       97.9
 04/20/14 15:00    36.5      25       8      19     257       0.2       97.9
 04/20/14 16:00    35.8      19      11      20     247       0.2       97.5
 04/20/14 17:00    36.1      23      11      19     231       0.2       97.5
 04/20/14 18:00    34.7      29       8      16     298       0.3       97.3
 04/20/14 19:00    33.0      33      10      16     279       0.3       97.2
 04/20/14 20:00    31.7      30      12      18     314       0.3       97.1
 04/20/14 21:00    31.1      30       6      26     328       0.3       97.1
 04/20/14 22:00    30.7      33       9      12     295       0.3       97.1
 04/20/14 23:00    29.8      34       8      12     288       0.3       97.2
 04/21/14 00:00    29.3      35       6       8     270       0.3       97.0
 04/21/14 01:00    29.2      36       5      10     282       0.3       97.0
 04/21/14 02:00    28.5      34       8      11     270       0.4       97.0
 04/21/14 03:00    28.7      35       7      12     269       0.3       97.0
 04/21/14 04:00    28.6      40       9      14     297       0.3       96.8
 04/21/14 05:00    28.5      38       8      12     279       0.3       96.8
 04/21/14 06:00    28.6      38       5      14     261       0.3       96.9
 04/21/14 07:00    28.8      40       4      10      76       0.4       96.9
 04/21/14 08:00    29.9      36       3       7     348       0.3       96.7
 04/21/14 09:00    35.3      29       1       4     350       0.3       96.8